createdAt,value
2023-03-11T00:05:15.314Z,1
2023-03-11T00:20:38.634Z,1
2023-03-11T00:36:01.935Z,1
2023-03-11T00:51:25.237Z,2.1
2023-03-11T01:06:48.545Z,1.1
2023-03-11T01:22:11.867Z,1.5
2023-03-11T01:37:35.172Z,1
2023-03-11T01:52:58.475Z,1.6
2023-03-11T02:08:21.792Z,2
2023-03-11T02:23:44.124Z,2.4
2023-03-11T02:39:07.426Z,3.2
2023-03-11T02:54:30.730Z,2.7
2023-03-11T03:09:54.032Z,2.3
2023-03-11T03:25:17.346Z,3
2023-03-11T03:40:40.656Z,5.2
2023-03-11T03:56:03.000Z,5
2023-03-11T04:11:26.300Z,5
2023-03-11T04:26:48.632Z,5.4
2023-03-11T04:42:10.966Z,8.2
2023-03-11T04:57:33.278Z,6.8
2023-03-11T05:12:56.548Z,3.9
2023-03-11T05:28:19.809Z,5.2
2023-03-11T05:43:43.080Z,9.1
2023-03-11T05:59:06.342Z,7.6
2023-03-11T06:14:29.603Z,11
2023-03-11T06:29:52.876Z,6.2
2023-03-11T06:45:16.152Z,6.5
2023-03-11T07:00:39.414Z,3.5
2023-03-11T07:16:02.679Z,8
2023-03-11T07:31:25.931Z,7.7
2023-03-11T07:46:49.207Z,4.5
2023-03-11T08:02:12.469Z,5.2
2023-03-11T08:17:34.749Z,4.8
2023-03-11T08:32:58.018Z,5.3
2023-03-11T08:48:21.287Z,8.5
2023-03-11T09:03:44.552Z,3
2023-03-11T09:19:07.804Z,3.8
2023-03-11T09:34:31.074Z,8.9
2023-03-11T09:49:54.348Z,3.9
2023-03-11T10:05:16.628Z,7.7
2023-03-11T10:20:38.918Z,6.1
2023-03-11T10:36:01.197Z,6.6
2023-03-11T10:51:23.471Z,7.5
2023-03-11T11:06:46.743Z,4.4
2023-03-11T11:22:10.020Z,8.2
2023-03-11T11:37:33.278Z,6.6
2023-03-11T11:52:56.545Z,6.2
2023-03-11T11:54:19.952Z,8.8
2023-03-11T11:55:43.362Z,10.4
2023-03-11T11:57:06.769Z,9.8
2023-03-11T11:58:30.175Z,11.2
2023-03-11T11:59:53.598Z,10.5
2023-03-11T12:01:16.992Z,7.9
2023-03-11T12:02:40.394Z,9.4
2023-03-11T12:04:03.811Z,9.7
2023-03-11T12:05:26.229Z,9
2023-03-11T12:06:49.645Z,9.7
2023-03-11T12:08:13.048Z,7.3
2023-03-11T12:09:36.453Z,9.1
2023-03-11T12:10:59.862Z,7.1
2023-03-11T12:12:23.277Z,9.7
2023-03-11T12:13:46.676Z,8.6
2023-03-11T12:15:09.120Z,8.4
2023-03-11T12:16:31.545Z,7.2
2023-03-11T12:17:54.956Z,12.8
2023-03-11T12:19:18.359Z,6.8
2023-03-11T12:20:41.772Z,9
2023-03-11T12:22:05.177Z,8.7
2023-03-11T12:23:28.000Z,8.2
2023-03-11T12:24:52.001Z,7.9
2023-03-11T12:26:15.401Z,7.4
2023-03-11T12:27:38.822Z,9.9
2023-03-11T12:29:02.232Z,8.3
2023-03-11T12:30:25.638Z,11.7
2023-03-11T12:31:49.057Z,7.2
2023-03-11T12:33:12.470Z,8
2023-03-11T12:34:34.897Z,6.8
2023-03-11T12:35:58.301Z,7.3
2023-03-11T12:37:21.704Z,9.2
2023-03-11T12:38:45.107Z,7.1
2023-03-11T12:40:08.519Z,7.7
2023-03-11T12:41:31.941Z,6.2
2023-03-11T12:44:18.000Z,7.2
2023-03-11T12:45:41.179Z,6.5
2023-03-11T12:47:03.615Z,7.7
2023-03-11T12:48:27.016Z,6.7
2023-03-11T12:49:50.443Z,5.3
2023-03-11T12:52:37.254Z,5.4
2023-03-11T12:54:00.676Z,6.6
2023-03-11T12:55:24.081Z,5.7
2023-03-11T12:56:47.480Z,6.8
2023-03-11T12:58:10.897Z,6.2
2023-03-11T12:59:34.295Z,7.5
2023-03-11T13:00:57.707Z,9.4
2023-03-11T13:02:21.124Z,7.3
2023-03-11T13:03:44.534Z,6.1
2023-03-11T13:05:06.953Z,7.4
2023-03-11T13:06:30.361Z,8.4
2023-03-11T13:07:53.760Z,9.5
2023-03-11T13:09:17.168Z,7.3
2023-03-11T13:10:40.000Z,7
2023-03-11T13:12:03.990Z,7.7
2023-03-11T13:13:27.408Z,7.8
2023-03-11T13:14:50.818Z,7.1
2023-03-11T13:16:13.253Z,6.6
2023-03-11T13:17:35.675Z,7.2
2023-03-11T13:18:58.108Z,7.3
2023-03-11T13:20:20.521Z,6.9
2023-03-11T13:21:43.940Z,8.4
2023-03-11T13:23:07.349Z,8.3
2023-03-11T13:24:30.759Z,8.1
2023-03-11T13:25:54.169Z,10.8
2023-03-11T13:27:17.566Z,9.8
2023-03-11T13:28:40.979Z,7
2023-03-11T13:30:04.395Z,6.8
2023-03-11T13:31:27.809Z,9.8
2023-03-11T13:32:51.213Z,6.4
2023-03-11T13:34:14.621Z,10
2023-03-11T13:35:38.040Z,9.5
2023-03-11T13:37:01.438Z,7.1
2023-03-11T13:38:23.870Z,8
2023-03-11T13:39:47.271Z,6.3
2023-03-11T13:41:10.692Z,8
2023-03-11T13:42:34.111Z,8.3
2023-03-11T13:43:57.513Z,10.3
2023-03-11T13:45:20.915Z,11.9
2023-03-11T13:46:44.332Z,12.6
2023-03-11T13:48:06.763Z,16.8
2023-03-11T13:49:29.181Z,13
2023-03-11T13:50:52.605Z,10.7
2023-03-11T13:52:15.998Z,9.6
2023-03-11T13:53:39.422Z,9.6
2023-03-11T13:55:02.825Z,14.7
2023-03-11T13:56:26.243Z,11.3
2023-03-11T13:57:49.640Z,8.8
2023-03-11T13:59:13.050Z,10
2023-03-11T14:00:36.467Z,11.4
2023-03-11T14:01:59.874Z,13.1
2023-03-11T14:03:23.279Z,15
2023-03-11T14:04:46.693Z,10.6
2023-03-11T14:06:10.112Z,8.4
2023-03-11T14:07:32.523Z,9.2
2023-03-11T14:08:55.930Z,7.8
2023-03-11T14:10:19.358Z,6.1
2023-03-11T14:11:42.763Z,9.8
2023-03-11T14:13:06.174Z,10
2023-03-11T14:14:29.574Z,7.3
2023-03-11T14:15:52.985Z,8.5
2023-03-11T14:17:16.399Z,6.9
2023-03-11T14:18:39.804Z,6.3
2023-03-11T14:20:03.216Z,6.3
2023-03-11T14:21:26.618Z,5.8
2023-03-11T14:22:50.018Z,8.5
2023-03-11T14:24:13.435Z,7.3
2023-03-11T14:25:35.862Z,6.4
2023-03-11T14:26:59.270Z,7
2023-03-11T14:28:22.692Z,6.5
2023-03-11T14:29:46.000Z,6.9
2023-03-11T14:31:09.500Z,6.7
2023-03-11T14:32:32.914Z,4.9
2023-03-11T14:33:56.338Z,6.2
2023-03-11T14:35:19.734Z,5.2
2023-03-11T14:36:43.157Z,8.2
2023-03-11T14:38:06.560Z,5
2023-03-11T14:39:29.982Z,5.4
2023-03-11T14:40:53.387Z,6.4
2023-03-11T14:42:16.783Z,6
2023-03-11T14:43:39.208Z,6.9
2023-03-11T14:45:02.595Z,6.4
2023-03-11T14:46:26.013Z,6
2023-03-11T14:47:49.417Z,5.2
2023-03-11T14:49:12.836Z,7.9
2023-03-11T14:50:36.241Z,5.9
2023-03-11T14:51:59.647Z,8.4
2023-03-11T14:53:23.056Z,4.7
2023-03-11T14:54:46.458Z,5.5
2023-03-11T14:56:09.883Z,7.2
2023-03-11T14:57:33.282Z,5.6
2023-03-11T14:58:56.697Z,7.4
2023-03-11T15:00:20.102Z,6
2023-03-11T15:01:42.520Z,6
2023-03-11T15:03:05.942Z,5.8
2023-03-11T15:04:29.337Z,6
2023-03-11T15:05:52.748Z,6.3
2023-03-11T15:07:16.170Z,6.1
2023-03-11T15:08:39.571Z,8.4
2023-03-11T15:10:02.984Z,4.9
2023-03-11T15:11:26.388Z,4.6
2023-03-11T15:12:49.795Z,5.8
2023-03-11T15:14:13.201Z,7.7
2023-03-11T15:15:35.632Z,9.5
2023-03-11T15:16:59.028Z,10
2023-03-11T15:18:22.440Z,7.8
2023-03-11T15:19:45.847Z,5.9
2023-03-11T15:21:09.261Z,5.9
2023-03-11T15:22:32.668Z,6.6
2023-03-11T15:23:56.089Z,8.1
2023-03-11T15:25:19.491Z,4.2
2023-03-11T15:26:42.902Z,5.2
2023-03-11T15:28:06.301Z,5.8
2023-03-11T15:29:29.729Z,5.3
2023-03-11T15:30:53.133Z,4
2023-03-11T15:32:16.552Z,9.6
2023-03-11T15:33:38.960Z,5.1
2023-03-11T15:35:02.370Z,5.9
2023-03-11T15:36:25.784Z,4.3
2023-03-11T15:37:49.203Z,4.9
2023-03-11T15:39:12.600Z,5
2023-03-11T15:40:36.021Z,5.4
2023-03-11T15:41:59.429Z,7.8
2023-03-11T15:43:22.838Z,7.1
2023-03-11T15:44:46.241Z,6.8
2023-03-11T15:46:09.653Z,4.8
2023-03-11T15:47:33.061Z,5.5
2023-03-11T15:48:56.473Z,4.8
2023-03-11T15:50:19.889Z,4.8
2023-03-11T15:51:42.304Z,6.4
2023-03-11T15:53:05.726Z,3.2
2023-03-11T15:54:29.129Z,6.2
2023-03-11T15:55:52.526Z,4.9
2023-03-11T15:57:15.954Z,5.4
2023-03-11T15:58:39.344Z,3.6
2023-03-11T16:00:02.762Z,5.9
2023-03-11T16:01:26.170Z,6.7
2023-03-11T16:02:49.581Z,4.4
2023-03-11T16:04:12.980Z,5.2
2023-03-11T16:05:36.404Z,5.7
2023-03-11T16:06:59.803Z,12.8
2023-03-11T16:08:23.224Z,11.2
2023-03-11T16:09:45.644Z,14.3
2023-03-11T16:11:09.054Z,12.3
2023-03-11T16:12:32.464Z,22.9
2023-03-11T16:13:55.873Z,17.8
2023-03-11T16:15:19.273Z,9.6
2023-03-11T16:16:42.681Z,7.8
2023-03-11T16:18:06.085Z,6.9
2023-03-11T16:19:29.502Z,4
2023-03-11T16:20:52.918Z,5.5
2023-03-11T16:22:16.327Z,3.4
2023-03-11T16:23:39.733Z,4.4
2023-03-11T16:25:03.147Z,9.1
2023-03-11T16:26:26.537Z,5.7
2023-03-11T16:27:48.981Z,7.8
2023-03-11T16:29:12.376Z,4.1
2023-03-11T16:30:35.777Z,5.4
2023-03-11T16:31:59.193Z,5.7
2023-03-11T16:33:22.615Z,5.2
2023-03-11T16:34:46.028Z,6.3
2023-03-11T16:36:09.437Z,9.9
2023-03-11T16:37:32.846Z,12.2
2023-03-11T16:38:56.239Z,16.5
2023-03-11T16:40:19.657Z,22.1
2023-03-11T16:41:43.059Z,22
2023-03-11T16:43:06.473Z,14.6
2023-03-11T16:44:29.891Z,15.4
2023-03-11T16:45:52.308Z,23.6
2023-03-11T16:47:15.710Z,15.1
2023-03-11T16:48:39.132Z,11.6
2023-03-11T16:50:02.527Z,4.7
2023-03-11T16:51:25.950Z,3.9
2023-03-11T16:52:49.361Z,4.3
2023-03-11T16:54:12.757Z,4
2023-03-11T16:55:36.170Z,7.5
2023-03-11T16:56:59.566Z,6.4
2023-03-11T16:58:22.981Z,6.1
2023-03-11T16:59:46.392Z,3.6
2023-03-11T17:01:09.798Z,5.7
2023-03-11T17:02:33.202Z,4
2023-03-11T17:03:55.625Z,6.9
2023-03-11T17:05:19.047Z,3.4
2023-03-11T17:06:42.445Z,5.7
2023-03-11T17:08:05.848Z,4.7
2023-03-11T17:09:29.257Z,5.4
2023-03-11T17:10:52.670Z,3.7
2023-03-11T17:12:16.071Z,6.5
2023-03-11T17:13:39.489Z,5.9
2023-03-11T17:15:02.893Z,6.8
2023-03-11T17:16:26.293Z,6.8
2023-03-11T17:17:49.702Z,8.9
2023-03-11T17:19:13.116Z,47.5
2023-03-11T17:20:36.512Z,69.8
2023-03-11T17:21:58.932Z,84.2
2023-03-11T17:23:22.348Z,42.9
2023-03-11T17:24:45.758Z,67.6
2023-03-11T17:26:09.177Z,60.1
2023-03-11T17:27:32.580Z,14
2023-03-11T17:28:55.985Z,15.1
2023-03-11T17:30:19.388Z,19.3
2023-03-11T17:31:42.806Z,10.5
2023-03-11T17:33:06.212Z,8.1
2023-03-11T17:34:29.661Z,8.1
2023-03-11T17:35:53.061Z,6.5
2023-03-11T17:37:16.480Z,8.4
2023-03-11T17:38:39.887Z,5.5
2023-03-11T17:40:02.348Z,6.8
2023-03-11T17:41:25.789Z,9.1
2023-03-11T17:42:49.257Z,10.4
2023-03-11T17:44:12.700Z,12.9
2023-03-11T17:45:36.148Z,10.5
2023-03-11T17:46:59.597Z,11.3
2023-03-11T17:48:23.047Z,12.8
2023-03-11T17:49:46.491Z,38.4
2023-03-11T17:51:09.956Z,21.3
2023-03-11T17:52:33.401Z,28.4
2023-03-11T17:53:56.869Z,28.1
2023-03-11T17:55:20.315Z,18.7
2023-03-11T17:56:43.750Z,20.6
2023-03-11T17:58:06.224Z,17.3
2023-03-11T17:59:29.678Z,14.4
2023-03-11T18:00:53.127Z,16.8
2023-03-11T18:02:16.571Z,15.5
2023-03-11T18:03:40.030Z,18.5
2023-03-11T18:05:03.476Z,17.3
2023-03-11T18:06:26.922Z,12.8
2023-03-11T18:07:50.372Z,12.2
2023-03-11T18:09:13.817Z,10.5
2023-03-11T18:10:37.288Z,10.7
2023-03-11T18:12:00.731Z,8.6
2023-03-11T18:13:24.177Z,9.5
2023-03-11T18:14:47.627Z,7.9
2023-03-11T18:16:10.088Z,10.2
2023-03-11T18:17:33.551Z,8.9
2023-03-11T18:20:20.445Z,9.5
2023-03-11T18:21:43.906Z,6.3
2023-03-11T18:23:07.347Z,7.7
2023-03-11T18:24:30.796Z,8.5
2023-03-11T18:25:54.243Z,8.1
2023-03-11T18:27:17.699Z,9.9
2023-03-11T18:28:41.154Z,7.4
2023-03-11T18:30:04.587Z,6.5
2023-03-11T18:31:28.048Z,7.7
2023-03-11T18:32:51.503Z,6.9
2023-03-11T18:34:13.969Z,10.7
2023-03-11T18:35:37.419Z,7.6
2023-03-11T18:37:00.864Z,10.4
2023-03-11T18:38:24.325Z,8.7
2023-03-11T18:39:47.766Z,9
2023-03-11T18:41:11.216Z,8.3
2023-03-11T18:42:34.668Z,6.9
2023-03-11T18:43:58.115Z,10.3
2023-03-11T18:45:21.569Z,9.9
2023-03-11T18:46:45.021Z,7.6
2023-03-11T18:48:08.473Z,6.2
2023-03-11T18:49:31.920Z,6.5
2023-03-11T18:50:55.366Z,8.8
2023-03-11T18:52:17.848Z,10.1
2023-03-11T18:55:04.754Z,8.3
2023-03-11T18:56:28.189Z,8.5
2023-03-11T18:57:51.655Z,9
2023-03-11T18:59:15.095Z,7.4
2023-03-11T19:14:38.403Z,7.4
2023-03-11T19:30:01.709Z,8
2023-03-11T19:45:25.028Z,6.9
2023-03-11T20:00:48.328Z,13.5
2023-03-11T20:16:11.658Z,10.2
2023-03-11T20:31:34.967Z,14.8
2023-03-11T20:46:58.280Z,6.9
2023-03-11T21:02:20.605Z,3.7
2023-03-11T21:17:43.911Z,5
2023-03-11T21:33:07.229Z,5.4
2023-03-11T21:48:30.533Z,2.3
2023-03-11T22:03:53.848Z,3.7
2023-03-11T22:19:17.152Z,6.6
2023-03-11T22:34:40.473Z,11.9
2023-03-11T22:50:03.776Z,3
2023-03-11T23:05:27.100Z,1.9
2023-03-11T23:20:50.407Z,4
2023-03-11T23:36:13.717Z,3
2023-03-11T23:51:37.027Z,6.7
